Time;durP1;ratioP1;P1;durP2;ratioP2;P2;SDS_P1;SDS_P2;PMS_P1;PMS_P2;Temp;Humidity;BMP_temperature;BMP_pressure;BME280_temperature;BME280_humidity;BME280_pressure;Samples;Min_cycle;Max_cycle;Signal;HPM_P1;HPM_P2
2023/04/24 00:00:56;;;;;;;3.17;1.80;;;14.30;99.90;;;;;;5002615;28;20236;-66
2023/04/24 00:03:25;;;;;;;2.93;1.87;;;14.30;99.90;;;;;;5001182;28;20873;-66
2023/04/24 00:05:51;;;;;;;3.37;1.83;;;14.20;99.90;;;;;;5018262;28;20444;-66
2023/04/24 00:08:17;;;;;;;3.43;2.00;;;14.20;99.90;;;;;;5002356;28;20452;-66
2023/04/24 00:10:43;;;;;;;10.23;1.90;;;14.20;99.90;;;;;;5002360;28;20844;-66
2023/04/24 00:13:09;;;;;;;2.60;1.90;;;14.20;99.90;;;;;;4998742;28;20444;-66
2023/04/24 00:15:34;;;;;;;3.00;1.73;;;14.10;99.90;;;;;;5001756;28;20185;-66
2023/04/24 00:18:01;;;;;;;2.93;1.93;;;14.20;99.90;;;;;;5001022;28;20196;-66
2023/04/24 00:20:29;;;;;;;2.47;1.73;;;14.20;99.90;;;;;;4999509;28;20207;-66
2023/04/24 00:22:55;;;;;;;2.90;1.70;;;14.20;99.90;;;;;;5003807;28;20515;-66
2023/04/24 00:25:20;;;;;;;3.33;2.10;;;14.20;99.90;;;;;;5001836;28;20542;-67
2023/04/24 00:27:46;;;;;;;2.50;1.70;;;14.10;99.90;;;;;;5004798;28;20612;-66
2023/04/24 00:30:11;;;;;;;3.20;1.53;;;14.20;99.90;;;;;;5005306;28;20802;-66
2023/04/24 00:32:37;;;;;;;2.80;1.80;;;14.20;99.90;;;;;;5002966;28;20183;-66
2023/04/24 00:35:03;;;;;;;4.43;1.90;;;14.20;99.90;;;;;;5005049;28;20694;-66
2023/04/24 00:37:29;;;;;;;3.90;1.80;;;14.20;99.90;;;;;;5004492;28;20448;-66
2023/04/24 00:39:55;;;;;;;2.10;1.70;;;14.30;99.90;;;;;;5003930;28;20538;-66
2023/04/24 00:42:20;;;;;;;4.40;2.50;;;14.30;99.90;;;;;;5005000;28;20183;-66
2023/04/24 00:44:46;;;;;;;1.93;1.50;;;14.30;99.90;;;;;;5005171;28;20416;-66
2023/04/24 00:47:13;;;;;;;3.33;1.77;;;14.30;99.90;;;;;;5003335;28;20694;-66
2023/04/24 00:49:38;;;;;;;3.97;1.87;;;14.30;99.90;;;;;;5006651;28;20458;-66
2023/04/24 00:52:07;;;;;;;2.70;1.73;;;14.30;99.90;;;;;;5004747;28;20871;-66
2023/04/24 00:54:33;;;;;;;3.80;1.97;;;14.30;99.90;;;;;;5005643;28;20272;-66
2023/04/24 00:56:58;;;;;;;3.60;1.93;;;14.30;99.90;;;;;;5003621;28;20523;-66
2023/04/24 00:59:24;;;;;;;4.00;1.90;;;14.40;99.90;;;;;;5004212;28;20189;-66
2023/04/24 01:01:50;;;;;;;4.67;1.80;;;14.40;99.90;;;;;;5006307;28;20301;-66
2023/04/24 01:04:17;;;;;;;5.00;1.97;;;14.40;99.90;;;;;;5004125;28;20293;-66
2023/04/24 01:06:44;;;;;;;4.23;1.80;;;14.30;99.90;;;;;;5005081;28;20444;-66
2023/04/24 01:09:11;;;;;;;4.10;1.80;;;14.40;99.90;;;;;;5004799;28;20427;-66
2023/04/24 01:11:37;;;;;;;4.13;2.07;;;14.40;99.90;;;;;;5004169;28;20505;-66
2023/04/24 01:14:03;;;;;;;2.30;1.90;;;14.30;99.90;;;;;;5003214;28;20543;-67
2023/04/24 01:16:29;;;;;;;1.97;1.63;;;14.30;99.90;;;;;;5005676;28;20439;-67
2023/04/24 01:18:54;;;;;;;1.90;1.57;;;14.30;99.90;;;;;;5006783;28;20605;-66
2023/04/24 01:21:21;;;;;;;10.50;2.53;;;14.20;99.90;;;;;;5003854;28;20583;-67
2023/04/24 01:23:47;;;;;;;2.30;1.60;;;14.20;99.90;;;;;;5004774;28;20203;-66
2023/04/24 01:26:17;;;;;;;5.93;1.73;;;14.20;99.90;;;;;;4997574;28;20452;-66
2023/04/24 01:28:42;;;;;;;2.13;1.57;;;14.10;99.90;;;;;;5004466;28;20468;-66
2023/04/24 01:31:08;;;;;;;2.40;2.00;;;14.20;99.90;;;;;;5003733;28;20510;-66
2023/04/24 01:33:34;;;;;;;3.17;1.80;;;14.20;99.90;;;;;;5003670;28;20213;-66
2023/04/24 01:36:00;;;;;;;3.03;1.87;;;14.20;99.90;;;;;;5002988;28;20412;-66
2023/04/24 01:38:26;;;;;;;5.23;1.93;;;14.20;99.90;;;;;;5003144;28;20828;-66
2023/04/24 01:40:52;;;;;;;2.67;1.80;;;14.10;99.90;;;;;;5000611;28;20478;-66
2023/04/24 01:43:18;;;;;;;2.47;1.87;;;14.10;99.90;;;;;;5001969;28;21096;-66
2023/04/24 01:45:44;;;;;;;2.90;1.87;;;14.10;99.90;;;;;;5003983;28;20440;-66
2023/04/24 01:48:11;;;;;;;2.53;1.90;;;14.00;99.90;;;;;;5003712;28;20268;-66
2023/04/24 01:50:36;;;;;;;4.77;1.80;;;14.10;99.90;;;;;;5005123;28;20773;-66
2023/04/24 01:53:02;;;;;;;2.40;2.00;;;14.00;99.90;;;;;;5004796;28;20420;-66
2023/04/24 01:55:27;;;;;;;1.93;1.50;;;13.90;99.90;;;;;;5003190;28;20193;-66
2023/04/24 01:57:55;;;;;;;3.13;1.77;;;13.90;99.90;;;;;;5004925;28;20173;-66
2023/04/24 02:00:21;;;;;;;2.23;1.63;;;13.90;99.90;;;;;;4999702;28;20690;-66
2023/04/24 02:02:46;;;;;;;6.60;2.10;;;13.90;99.90;;;;;;5004624;28;20459;-66
2023/04/24 02:05:12;;;;;;;2.70;2.03;;;14.00;99.90;;;;;;4998845;28;20264;-67
2023/04/24 02:07:38;;;;;;;2.50;1.80;;;13.90;99.90;;;;;;5003143;28;20328;-66
2023/04/24 02:10:04;;;;;;;3.33;2.20;;;13.90;99.90;;;;;;5002036;28;20216;-66
2023/04/24 02:12:30;;;;;;;4.33;2.30;;;13.80;99.90;;;;;;5001905;28;20181;-66
2023/04/24 02:14:55;;;;;;;2.30;1.57;;;13.80;99.90;;;;;;5001442;28;20443;-67
2023/04/24 02:17:21;;;;;;;2.17;1.80;;;13.80;99.90;;;;;;5003134;28;20260;-66
2023/04/24 02:19:46;;;;;;;2.73;1.90;;;13.80;99.90;;;;;;5001451;28;20201;-66
2023/04/24 02:22:12;;;;;;;2.90;1.77;;;13.80;99.90;;;;;;5001157;28;20231;-66
2023/04/24 02:24:38;;;;;;;2.33;1.47;;;13.80;99.90;;;;;;5001976;28;20647;-65
2023/04/24 02:27:04;;;;;;;2.20;1.50;;;13.80;99.90;;;;;;5018750;28;20444;-65
2023/04/24 02:29:30;;;;;;;3.63;2.07;;;13.80;99.90;;;;;;5000703;28;20833;-65
2023/04/24 02:31:56;;;;;;;3.50;1.60;;;13.70;99.90;;;;;;5002700;28;20208;-66
2023/04/24 02:34:22;;;;;;;4.03;1.93;;;13.70;99.90;;;;;;5002124;28;20444;-65
2023/04/24 02:36:48;;;;;;;3.23;1.77;;;13.80;99.90;;;;;;5001787;28;20173;-66
2023/04/24 02:39:16;;;;;;;3.70;2.00;;;13.80;99.90;;;;;;5002958;28;20936;-66
2023/04/24 02:41:42;;;;;;;2.40;1.87;;;13.70;99.90;;;;;;5001004;28;20204;-66
2023/04/24 02:44:08;;;;;;;2.20;1.50;;;13.70;99.90;;;;;;5001158;28;20498;-66
2023/04/24 02:46:33;;;;;;;2.10;1.50;;;13.80;99.90;;;;;;4998895;28;21098;-66
2023/04/24 02:48:59;;;;;;;2.50;1.73;;;13.90;99.90;;;;;;5000616;28;20296;-66
2023/04/24 02:51:24;;;;;;;2.57;1.87;;;13.90;99.90;;;;;;5001968;28;20279;-66
2023/04/24 02:53:50;;;;;;;3.60;1.67;;;13.90;99.90;;;;;;5000515;28;20252;-66
2023/04/24 02:56:16;;;;;;;3.93;2.07;;;13.90;99.90;;;;;;4999089;28;20193;-66
2023/04/24 02:58:42;;;;;;;3.93;1.90;;;13.90;99.90;;;;;;5001344;28;20256;-66
2023/04/24 03:01:09;;;;;;;4.90;2.53;;;13.80;99.90;;;;;;4999314;28;20292;-66
2023/04/24 03:03:35;;;;;;;4.17;1.83;;;13.60;99.90;;;;;;5000163;28;20440;-66
2023/04/24 03:06:01;;;;;;;2.60;1.63;;;13.50;99.90;;;;;;5002980;28;20450;-65
2023/04/24 03:08:27;;;;;;;2.97;1.93;;;13.30;99.90;;;;;;5002431;28;21387;-66
2023/04/24 03:10:52;;;;;;;3.87;1.90;;;13.20;99.90;;;;;;5002918;28;20983;-66
2023/04/24 03:13:18;;;;;;;2.40;1.83;;;13.10;99.90;;;;;;5002984;28;20251;-66
2023/04/24 03:15:44;;;;;;;3.63;1.63;;;13.10;99.90;;;;;;5000649;28;20204;-66
2023/04/24 03:18:10;;;;;;;3.20;1.57;;;13.00;99.90;;;;;;5002041;28;20178;-66
2023/04/24 03:20:37;;;;;;;2.50;1.80;;;12.90;99.90;;;;;;5000438;28;20471;-66
2023/04/24 03:23:03;;;;;;;2.77;1.70;;;12.80;99.90;;;;;;5001499;28;20530;-66
2023/04/24 03:25:28;;;;;;;2.10;1.60;;;12.80;99.90;;;;;;4998318;28;20476;-66
2023/04/24 03:27:54;;;;;;;3.50;2.03;;;12.80;99.90;;;;;;5001353;28;20178;-66
2023/04/24 03:30:20;;;;;;;2.93;1.80;;;12.70;99.90;;;;;;4998513;28;20217;-66
2023/04/24 03:32:46;;;;;;;3.83;2.00;;;12.60;99.90;;;;;;5003782;28;20502;-66
2023/04/24 03:35:11;;;;;;;3.00;1.80;;;12.70;99.90;;;;;;5000232;28;20440;-67
2023/04/24 03:37:37;;;;;;;3.60;1.83;;;12.60;99.90;;;;;;5018322;28;20243;-66
2023/04/24 03:40:03;;;;;;;2.40;1.90;;;12.70;99.90;;;;;;5001478;28;20296;-66
2023/04/24 03:42:28;;;;;;;3.37;2.03;;;12.80;99.90;;;;;;5001538;28;20189;-67
2023/04/24 03:44:54;;;;;;;3.03;2.30;;;12.80;99.90;;;;;;5003367;28;20428;-66
2023/04/24 03:47:20;;;;;;;3.23;2.13;;;12.90;99.90;;;;;;5001934;28;20193;-66
2023/04/24 03:49:45;;;;;;;3.77;2.07;;;13.00;99.90;;;;;;5004382;28;20197;-66
2023/04/24 03:52:11;;;;;;;4.40;2.10;;;12.90;99.90;;;;;;5002702;28;20261;-66
2023/04/24 03:54:36;;;;;;;2.87;2.20;;;12.90;99.90;;;;;;5002116;28;20280;-66
2023/04/24 03:57:03;;;;;;;3.40;2.20;;;12.90;99.90;;;;;;5002877;28;20173;-66
2023/04/24 03:59:28;;;;;;;3.50;2.30;;;12.80;99.90;;;;;;5001621;28;20178;-67
2023/04/24 04:01:54;;;;;;;2.67;1.87;;;12.80;99.90;;;;;;5002008;28;20456;-67
2023/04/24 04:04:20;;;;;;;5.73;2.10;;;12.80;99.90;;;;;;4999842;28;20188;-67
2023/04/24 04:06:46;;;;;;;8.00;2.60;;;12.70;99.90;;;;;;5002698;28;20926;-67
2023/04/24 04:09:12;;;;;;;2.50;1.97;;;12.70;99.90;;;;;;5002740;28;20184;-67
2023/04/24 04:11:37;;;;;;;3.40;2.10;;;12.70;99.90;;;;;;5000809;28;20860;-67
2023/04/24 04:14:03;;;;;;;2.77;2.20;;;12.90;99.90;;;;;;5002630;28;20181;-67
2023/04/24 04:16:28;;;;;;;3.27;1.90;;;12.90;99.90;;;;;;4999305;28;20189;-66
2023/04/24 04:18:55;;;;;;;3.37;2.40;;;12.70;99.90;;;;;;5000006;28;20169;-67
2023/04/24 04:21:20;;;;;;;2.83;2.03;;;12.70;99.90;;;;;;5001314;28;20600;-66
2023/04/24 04:23:46;;;;;;;3.60;2.33;;;12.70;99.90;;;;;;5001696;28;20447;-67
2023/04/24 04:26:15;;;;;;;3.73;2.07;;;12.60;99.90;;;;;;4999672;28;20196;-67
2023/04/24 04:28:41;;;;;;;3.40;2.30;;;12.50;99.90;;;;;;4996822;28;20228;-67
2023/04/24 04:31:07;;;;;;;3.37;2.60;;;12.50;99.90;;;;;;5000286;28;20477;-67
2023/04/24 04:33:33;;;;;;;2.90;2.37;;;12.50;99.90;;;;;;5001732;28;20424;-67
2023/04/24 04:35:59;;;;;;;2.30;2.07;;;12.50;99.90;;;;;;4999652;28;20585;-67
2023/04/24 04:38:29;;;;;;;2.80;2.40;;;12.50;99.90;;;;;;5000859;28;20436;-67
2023/04/24 04:40:56;;;;;;;2.50;2.17;;;12.50;99.90;;;;;;4997794;28;20843;-67
2023/04/24 04:43:22;;;;;;;2.97;2.50;;;12.60;99.90;;;;;;5000580;28;20436;-67
2023/04/24 04:45:48;;;;;;;3.43;2.50;;;12.40;99.90;;;;;;5003067;28;20443;-67
2023/04/24 04:48:14;;;;;;;4.93;3.10;;;12.40;99.90;;;;;;5002570;28;20481;-67
2023/04/24 04:50:40;;;;;;;4.30;2.70;;;12.40;99.90;;;;;;5001988;28;20216;-67
2023/04/24 04:53:06;;;;;;;9.40;2.53;;;12.40;99.90;;;;;;5001224;28;20444;-67
2023/04/24 04:55:32;;;;;;;3.67;2.27;;;12.20;99.90;;;;;;5001387;28;20177;-67
2023/04/24 04:57:57;;;;;;;3.50;2.63;;;12.20;99.90;;;;;;5002457;28;20919;-67
2023/04/24 05:00:25;;;;;;;3.87;2.63;;;12.20;99.90;;;;;;5002278;28;20911;-66
2023/04/24 05:02:51;;;;;;;3.53;3.00;;;12.30;99.90;;;;;;5001684;28;20236;-67
2023/04/24 05:05:17;;;;;;;3.67;3.13;;;12.20;99.90;;;;;;5002876;28;20451;-67
2023/04/24 05:07:43;;;;;;;3.60;2.57;;;12.20;99.90;;;;;;5001438;28;20181;-67
2023/04/24 05:10:09;;;;;;;3.97;2.47;;;12.20;99.90;;;;;;5003821;28;20467;-67
2023/04/24 05:12:35;;;;;;;3.30;2.23;;;12.30;99.90;;;;;;5005491;28;20424;-67
2023/04/24 05:15:00;;;;;;;3.77;3.13;;;12.20;99.90;;;;;;5007581;28;20184;-67
2023/04/24 05:17:26;;;;;;;3.33;3.00;;;12.20;99.90;;;;;;5008932;28;20200;-67
2023/04/24 05:19:52;;;;;;;3.40;3.10;;;12.30;99.90;;;;;;5006176;28;20239;-67
2023/04/24 05:22:20;;;;;;;3.67;2.80;;;12.20;99.90;;;;;;5003600;28;20602;-67
2023/04/24 05:24:46;;;;;;;3.70;2.57;;;12.30;99.90;;;;;;5005440;28;20191;-67
2023/04/24 05:27:12;;;;;;;4.60;2.90;;;12.40;99.90;;;;;;5005412;28;20690;-67
2023/04/24 05:29:38;;;;;;;3.20;2.90;;;12.50;99.90;;;;;;5004631;28;20551;-68
2023/04/24 05:32:03;;;;;;;4.00;2.87;;;12.50;99.90;;;;;;5004386;28;20248;-67
2023/04/24 05:34:29;;;;;;;2.97;2.67;;;12.50;99.90;;;;;;5003051;28;20549;-67
2023/04/24 05:36:55;;;;;;;3.20;2.63;;;12.40;99.90;;;;;;5004825;28;20181;-67
2023/04/24 05:39:21;;;;;;;5.63;3.40;;;12.40;99.90;;;;;;5004775;28;20860;-67
2023/04/24 05:41:46;;;;;;;2.60;2.10;;;12.50;99.90;;;;;;5004779;28;20452;-67
2023/04/24 05:44:12;;;;;;;3.13;2.60;;;12.60;99.90;;;;;;5020046;28;20216;-67
2023/04/24 05:46:37;;;;;;;3.90;3.03;;;12.70;99.90;;;;;;5002986;28;20204;-67
2023/04/24 05:49:03;;;;;;;4.47;2.67;;;12.60;99.90;;;;;;5020340;28;20184;-66
2023/04/24 05:51:28;;;;;;;5.13;2.73;;;12.50;99.90;;;;;;5004122;28;20216;-67
2023/04/24 05:53:54;;;;;;;3.40;2.60;;;12.50;99.90;;;;;;5005813;28;20186;-67
2023/04/24 05:56:20;;;;;;;3.40;2.90;;;12.50;99.90;;;;;;5017884;28;20205;-67
2023/04/24 05:58:46;;;;;;;4.00;3.13;;;12.50;99.90;;;;;;5001841;28;20647;-67
2023/04/24 06:01:14;;;;;;;10.23;2.90;;;12.60;99.90;;;;;;5003540;28;20571;-67
2023/04/24 06:03:40;;;;;;;2.67;2.47;;;12.60;99.90;;;;;;5003232;28;20937;-67
2023/04/24 06:06:07;;;;;;;5.03;2.50;;;12.60;99.90;;;;;;5004118;28;20460;-67
2023/04/24 06:08:32;;;;;;;3.00;2.60;;;12.60;99.90;;;;;;5004539;28;20940;-67
2023/04/24 06:10:58;;;;;;;3.40;2.50;;;12.60;99.90;;;;;;5002472;28;20478;-67
2023/04/24 06:13:24;;;;;;;3.63;2.97;;;12.60;99.90;;;;;;5000874;28;20300;-67
2023/04/24 06:15:49;;;;;;;3.20;2.27;;;12.60;99.90;;;;;;5005557;28;20886;-67
2023/04/24 06:18:15;;;;;;;3.90;3.20;;;12.60;99.90;;;;;;5004956;28;20627;-67
2023/04/24 06:20:41;;;;;;;3.50;2.50;;;12.70;99.90;;;;;;5001674;28;20788;-67
2023/04/24 06:23:06;;;;;;;5.00;3.30;;;12.70;99.90;;;;;;5000788;28;20647;-67
2023/04/24 06:25:32;;;;;;;3.83;3.43;;;12.60;99.90;;;;;;5001231;28;20233;-67
2023/04/24 06:27:58;;;;;;;3.07;2.67;;;12.60;99.90;;;;;;5003700;28;20243;-67
2023/04/24 06:30:23;;;;;;;3.67;2.80;;;12.70;99.90;;;;;;4999986;28;20271;-67
2023/04/24 06:32:49;;;;;;;3.13;2.83;;;12.70;99.90;;;;;;4998807;28;20199;-67
2023/04/24 06:35:14;;;;;;;6.10;3.20;;;12.60;99.90;;;;;;4998831;28;20196;-67
2023/04/24 06:37:41;;;;;;;3.17;2.80;;;12.50;99.90;;;;;;4998979;28;20215;-68
2023/04/24 06:40:08;;;;;;;4.30;3.53;;;12.60;99.90;;;;;;4994316;28;20228;-67
2023/04/24 06:42:34;;;;;;;4.90;3.60;;;12.60;99.90;;;;;;5002892;28;20451;-67
2023/04/24 06:45:00;;;;;;;4.07;2.80;;;12.70;99.90;;;;;;5001853;28;20439;-67
2023/04/24 06:47:26;;;;;;;4.60;3.13;;;12.70;99.90;;;;;;5000792;28;20511;-66
2023/04/24 06:49:52;;;;;;;3.73;3.03;;;12.70;99.90;;;;;;5000321;28;20956;-66
2023/04/24 06:52:18;;;;;;;4.10;3.47;;;12.70;99.90;;;;;;5002806;28;20212;-66
2023/04/24 06:54:44;;;;;;;5.40;3.30;;;12.70;99.90;;;;;;4995571;28;21178;-67
2023/04/24 06:57:10;;;;;;;3.90;3.50;;;12.90;99.90;;;;;;4993135;28;20483;-67
2023/04/24 06:59:36;;;;;;;3.47;2.70;;;12.90;99.90;;;;;;4997931;28;20552;-65
2023/04/24 07:02:02;;;;;;;4.57;2.87;;;12.90;99.90;;;;;;5000376;28;20324;-66
2023/04/24 07:04:28;;;;;;;4.07;3.00;;;13.00;99.90;;;;;;5000128;28;20423;-66
2023/04/24 07:06:57;;;;;;;5.07;3.20;;;13.00;99.90;;;;;;5016497;28;20435;-66
2023/04/24 07:09:25;;;;;;;2.93;2.63;;;12.80;99.90;;;;;;4996556;28;21524;-66
2023/04/24 07:11:53;;;;;;;4.00;3.10;;;12.70;99.90;;;;;;4992907;28;20468;-66
2023/04/24 07:14:20;;;;;;;3.67;3.10;;;12.70;99.90;;;;;;4997114;28;20478;-65
2023/04/24 07:16:45;;;;;;;5.13;3.33;;;12.80;99.90;;;;;;4999267;28;20440;-66
2023/04/24 07:19:12;;;;;;;3.90;2.90;;;12.90;99.90;;;;;;5001529;28;20522;-66
2023/04/24 07:21:37;;;;;;;7.93;3.60;;;12.80;99.90;;;;;;4999097;28;20201;-66
2023/04/24 07:24:03;;;;;;;3.37;3.07;;;12.80;99.90;;;;;;4996453;28;20442;-66
2023/04/24 07:26:30;;;;;;;3.63;3.23;;;12.80;99.90;;;;;;5000335;28;20287;-66
2023/04/24 07:28:56;;;;;;;3.80;3.10;;;12.80;99.90;;;;;;5002149;28;20200;-67
2023/04/24 07:31:22;;;;;;;3.90;2.90;;;12.90;99.90;;;;;;5000086;28;20475;-67
2023/04/24 07:33:48;;;;;;;3.17;2.50;;;12.90;99.90;;;;;;4999433;28;20271;-67
2023/04/24 07:36:18;;;;;;;5.50;3.07;;;12.80;99.90;;;;;;5000708;28;20433;-67
2023/04/24 07:38:46;;;;;;;3.00;2.70;;;12.90;99.90;;;;;;4996452;28;20981;-67
2023/04/24 07:41:15;;;;;;;3.10;2.50;;;12.90;99.90;;;;;;4996624;28;20547;-67
2023/04/24 07:43:41;;;;;;;4.83;2.50;;;13.00;99.90;;;;;;5000431;28;20443;-67
2023/04/24 07:46:10;;;;;;;4.30;2.60;;;13.00;99.90;;;;;;4999650;28;20424;-67
2023/04/24 07:48:36;;;;;;;3.30;2.57;;;13.00;99.90;;;;;;5000179;28;20448;-67
2023/04/24 07:51:02;;;;;;;5.73;2.30;;;13.10;99.90;;;;;;5002686;28;20871;-67
2023/04/24 07:53:28;;;;;;;5.73;2.70;;;12.90;99.90;;;;;;5003484;28;20431;-67
2023/04/24 07:55:55;;;;;;;2.53;2.27;;;12.80;99.90;;;;;;5000221;28;20802;-66
2023/04/24 07:58:21;;;;;;;3.20;2.57;;;12.60;99.90;;;;;;4998055;28;21111;-67
2023/04/24 08:00:46;;;;;;;5.10;3.00;;;12.40;99.90;;;;;;4998815;28;20451;-67
2023/04/24 08:03:12;;;;;;;7.73;2.93;;;12.40;99.90;;;;;;5000249;28;20657;-67
2023/04/24 08:05:38;;;;;;;4.10;2.73;;;12.40;99.90;;;;;;5014198;28;20198;-67
2023/04/24 08:08:04;;;;;;;3.43;2.80;;;12.40;99.90;;;;;;5000374;28;20208;-66
2023/04/24 08:10:30;;;;;;;3.03;2.43;;;12.30;99.90;;;;;;4998809;28;20561;-66
2023/04/24 08:12:55;;;;;;;4.53;2.50;;;12.20;99.90;;;;;;4997524;28;20190;-66
2023/04/24 08:15:21;;;;;;;5.70;2.93;;;12.30;99.90;;;;;;5000829;28;20184;-66
2023/04/24 08:17:47;;;;;;;3.00;2.60;;;12.40;99.90;;;;;;4999317;28;20193;-66
2023/04/24 08:20:15;;;;;;;3.20;2.80;;;12.60;99.90;;;;;;4998303;28;20462;-66
2023/04/24 08:22:42;;;;;;;3.23;2.67;;;12.80;99.90;;;;;;4994160;28;20687;-66
2023/04/24 08:25:09;;;;;;;3.13;2.60;;;13.00;99.90;;;;;;4996596;28;20676;-66
2023/04/24 08:27:36;;;;;;;2.70;2.50;;;13.10;99.90;;;;;;4998756;28;20816;-67
2023/04/24 08:30:03;;;;;;;2.97;2.20;;;13.00;99.90;;;;;;5001638;28;21007;-66
2023/04/24 08:32:28;;;;;;;2.50;2.20;;;12.90;99.90;;;;;;4996474;28;20523;-67
2023/04/24 08:34:58;;;;;;;2.70;2.50;;;12.80;99.90;;;;;;5014490;28;20575;-66
2023/04/24 08:37:25;;;;;;;2.30;2.00;;;12.30;99.90;;;;;;4997065;28;20272;-67
2023/04/24 08:39:51;;;;;;;3.93;2.83;;;12.10;99.90;;;;;;5001191;28;20879;-66
2023/04/24 08:42:18;;;;;;;3.83;2.27;;;11.90;99.90;;;;;;4996489;28;20476;-67
2023/04/24 08:44:44;;;;;;;3.83;2.50;;;12.10;99.90;;;;;;5001833;28;20192;-67
2023/04/24 08:47:11;;;;;;;5.27;2.30;;;12.00;99.90;;;;;;5003778;28;20483;-66
2023/04/24 08:49:37;;;;;;;4.70;2.93;;;12.00;99.90;;;;;;5003598;28;20440;-67
2023/04/24 08:52:03;;;;;;;3.73;2.50;;;12.00;99.90;;;;;;4996902;28;20493;-67
2023/04/24 08:54:29;;;;;;;3.03;2.47;;;12.00;99.90;;;;;;5003692;28;20436;-67
2023/04/24 08:57:01;;;;;;;2.80;2.47;;;12.10;99.90;;;;;;5004233;28;20472;-67
2023/04/24 08:59:28;;;;;;;4.73;2.80;;;12.20;99.90;;;;;;5003982;28;20207;-67
2023/04/24 09:01:55;;;;;;;2.97;2.50;;;12.40;99.90;;;;;;5004118;28;20913;-67
2023/04/24 09:04:24;;;;;;;4.03;2.80;;;12.70;99.90;;;;;;5004468;28;20434;-66
2023/04/24 09:06:50;;;;;;;3.13;2.70;;;12.80;99.90;;;;;;5003286;28;20982;-66
2023/04/24 09:09:17;;;;;;;4.07;2.83;;;12.90;99.90;;;;;;5002620;28;20455;-66
2023/04/24 09:11:43;;;;;;;3.40;3.10;;;12.90;99.90;;;;;;5002301;28;20479;-66
2023/04/24 09:14:10;;;;;;;3.90;2.60;;;13.10;99.90;;;;;;5004200;28;20443;-66
2023/04/24 09:16:36;;;;;;;5.60;2.83;;;13.10;99.90;;;;;;5002585;28;20189;-67
2023/04/24 09:19:02;;;;;;;3.17;2.50;;;13.10;99.90;;;;;;5005761;28;20465;-67
2023/04/24 09:21:33;;;;;;;2.83;2.47;;;13.20;99.90;;;;;;5001996;28;20197;-66
2023/04/24 09:24:02;;;;;;;3.20;2.90;;;13.20;99.90;;;;;;4996704;28;20439;-67
2023/04/24 09:26:31;;;;;;;4.20;2.80;;;13.20;99.90;;;;;;4999551;28;21577;-66
2023/04/24 09:28:57;;;;;;;4.20;2.97;;;13.20;99.90;;;;;;5003598;28;20483;-66
2023/04/24 09:31:23;;;;;;;3.43;3.13;;;13.10;99.90;;;;;;4999442;28;21017;-66
2023/04/24 09:33:55;;;;;;;5.43;3.50;;;13.20;99.90;;;;;;4998861;28;20275;-66
2023/04/24 09:36:29;;;;;;;6.83;3.37;;;13.10;99.90;;;;;;4993638;28;20185;-66
2023/04/24 09:38:59;;;;;;;4.73;3.57;;;13.20;99.90;;;;;;4995063;28;20466;-66
2023/04/24 09:41:25;;;;;;;4.80;3.50;;;13.40;99.90;;;;;;4999185;28;20471;-66
2023/04/24 09:43:54;;;;;;;4.83;4.10;;;13.10;99.90;;;;;;4999456;28;20817;-66
2023/04/24 09:46:21;;;;;;;4.50;4.10;;;13.20;99.90;;;;;;4998771;28;20439;-66
2023/04/24 09:48:47;;;;;;;5.57;4.20;;;13.10;99.90;;;;;;4997960;28;20276;-67
2023/04/24 09:51:12;;;;;;;4.30;3.90;;;13.10;99.90;;;;;;5001509;28;20582;-67
2023/04/24 09:53:41;;;;;;;4.63;3.97;;;13.00;99.90;;;;;;4994984;28;20264;-67
2023/04/24 09:56:08;;;;;;;5.10;4.10;;;13.10;99.90;;;;;;4999627;28;20231;-67
2023/04/24 09:58:36;;;;;;;4.13;3.73;;;13.20;99.90;;;;;;5001956;28;20434;-66
2023/04/24 10:01:01;;;;;;;3.83;3.53;;;13.40;99.90;;;;;;5001791;28;20555;-66
2023/04/24 10:03:30;;;;;;;7.33;3.73;;;13.60;99.90;;;;;;5003485;28;20528;-66
2023/04/24 10:05:59;;;;;;;3.90;3.17;;;13.70;99.90;;;;;;5002383;28;20264;-66
2023/04/24 10:08:26;;;;;;;5.37;3.47;;;13.70;99.90;;;;;;4996903;28;20444;-67
2023/04/24 10:10:52;;;;;;;4.83;3.17;;;13.70;99.90;;;;;;4997628;28;20482;-66
2023/04/24 10:13:18;;;;;;;4.17;3.50;;;13.70;99.90;;;;;;4996233;28;20470;-66
2023/04/24 10:15:44;;;;;;;3.40;3.10;;;13.90;99.90;;;;;;4997000;28;20440;-67
2023/04/24 10:18:10;;;;;;;4.33;3.20;;;13.80;99.90;;;;;;4999484;28;20181;-67
2023/04/24 10:20:37;;;;;;;4.20;3.40;;;13.80;99.90;;;;;;4999117;28;20549;-67
2023/04/24 10:23:04;;;;;;;3.20;2.87;;;13.80;99.90;;;;;;4994675;28;20451;-67
2023/04/24 10:25:34;;;;;;;5.13;3.30;;;13.80;99.90;;;;;;5001153;28;20447;-67
2023/04/24 10:28:01;;;;;;;4.40;3.67;;;13.70;99.90;;;;;;4998733;28;20578;-67
2023/04/24 10:30:35;;;;;;;3.63;2.97;;;13.70;99.90;;;;;;4998847;28;20533;-68
2023/04/24 10:33:03;;;;;;;3.37;2.97;;;13.60;99.90;;;;;;4998557;28;20451;-68
2023/04/24 10:35:32;;;;;;;3.50;3.20;;;13.50;99.90;;;;;;5001021;28;20443;-67
2023/04/24 10:38:01;;;;;;;4.00;3.70;;;13.60;99.90;;;;;;4998166;28;20458;-67
2023/04/24 10:40:32;;;;;;;4.40;3.80;;;13.60;99.90;;;;;;5013315;28;20694;-68
2023/04/24 10:42:57;;;;;;;5.07;3.33;;;13.40;99.90;;;;;;4992634;28;20831;-68
2023/04/24 10:45:24;;;;;;;4.40;3.53;;;13.30;99.90;;;;;;4999659;28;20468;-67
2023/04/24 10:47:56;;;;;;;4.30;3.90;;;13.30;99.90;;;;;;4998194;28;20182;-67
2023/04/24 10:50:22;;;;;;;4.00;3.57;;;13.10;99.90;;;;;;4996993;28;20888;-68
2023/04/24 10:52:53;;;;;;;4.83;3.90;;;13.30;99.90;;;;;;4997263;28;20444;-67
2023/04/24 10:55:50;;;;;;;3.70;3.40;;;13.40;99.90;;;;;;4997099;28;20189;-68
2023/04/24 10:58:17;;;;;;;5.40;4.37;;;13.40;99.90;;;;;;4999857;28;20447;-68
2023/04/24 11:00:46;;;;;;;4.97;3.93;;;13.50;99.90;;;;;;4996061;28;20474;-69
2023/04/24 11:03:26;;;;;;;3.87;3.20;;;13.40;99.90;;;;;;4997365;28;20447;-67
2023/04/24 11:06:08;;;;;;;4.87;3.63;;;13.40;99.90;;;;;;4996558;28;20431;-68
2023/04/24 11:08:45;;;;;;;4.47;4.07;;;13.60;99.90;;;;;;4997291;28;21097;-67
2023/04/24 11:11:15;;;;;;;4.33;3.93;;;13.30;99.90;;;;;;4996192;28;20708;-67
2023/04/24 11:13:55;;;;;;;5.97;4.60;;;13.20;99.90;;;;;;4991112;28;20436;-68
2023/04/24 11:16:35;;;;;;;5.47;4.50;;;12.90;99.90;;;;;;4993548;28;20436;-67
2023/04/24 11:19:18;;;;;;;5.87;4.40;;;13.00;99.90;;;;;;4997161;28;20809;-67
2023/04/24 11:22:00;;;;;;;4.60;4.10;;;12.90;99.90;;;;;;4997359;28;20470;-67
2023/04/24 11:24:47;;;;;;;5.97;4.33;;;13.20;99.90;;;;;;5001401;28;20465;-67
2023/04/24 11:27:16;;;;;;;5.80;5.10;;;13.10;99.90;;;;;;4998657;28;20522;-67
2023/04/24 11:29:46;;;;;;;5.60;5.00;;;12.90;99.90;;;;;;4999044;28;21134;-66
2023/04/24 11:32:18;;;;;;;6.00;5.33;;;12.90;99.90;;;;;;4998345;28;20471;-67
2023/04/24 11:35:28;;;;;;;7.03;5.17;;;13.20;99.90;;;;;;4999283;28;20534;-67
2023/04/24 11:37:54;;;;;;;5.93;5.00;;;13.20;99.90;;;;;;4999190;28;21091;-67
2023/04/24 11:40:25;;;;;;;5.83;5.33;;;13.20;99.90;;;;;;5000162;28;20475;-68
2023/04/24 11:42:52;;;;;;;5.50;4.70;;;13.30;99.90;;;;;;4999113;28;20449;-68
2023/04/24 11:45:22;;;;;;;7.93;5.53;;;13.20;99.90;;;;;;4999389;28;21039;-66
2023/04/24 11:47:47;;;;;;;6.00;5.50;;;13.20;99.90;;;;;;4998558;28;20440;-66
2023/04/24 11:50:18;;;;;;;6.20;5.60;;;13.20;99.90;;;;;;4994385;28;20475;-67
2023/04/24 11:52:49;;;;;;;6.57;5.87;;;13.10;99.90;;;;;;4999828;28;20177;-67
2023/04/24 11:55:15;;;;;;;7.27;6.43;;;13.10;99.90;;;;;;4997867;28;20436;-67
2023/04/24 11:57:47;;;;;;;8.50;6.37;;;13.10;99.90;;;;;;4997581;28;20436;-67
2023/04/24 12:00:30;;;;;;;7.77;5.60;;;13.40;99.90;;;;;;4995043;28;20247;-67
2023/04/24 12:03:05;;;;;;;5.43;4.93;;;13.40;99.90;;;;;;4995354;28;20450;-68
2023/04/24 12:05:31;;;;;;;5.63;4.83;;;13.80;99.90;;;;;;4997397;28;20458;-67
2023/04/24 12:07:57;;;;;;;7.67;4.90;;;15.30;99.90;;;;;;4997598;28;20447;-68
2023/04/24 12:10:27;;;;;;;4.97;4.20;;;16.50;99.90;;;;;;4993556;28;20347;-67
2023/04/24 12:12:55;;;;;;;4.87;4.27;;;18.00;99.90;;;;;;4993715;28;20177;-67
2023/04/24 12:15:21;;;;;;;5.57;4.13;;;17.90;99.90;;;;;;4993612;28;22481;-67
2023/04/24 12:17:47;;;;;;;4.13;3.57;;;18.20;99.90;;;;;;4994813;28;20451;-68
2023/04/24 12:20:14;;;;;;;6.67;4.30;;;17.80;99.90;;;;;;4998072;28;20491;-68
2023/04/24 12:22:44;;;;;;;5.30;4.07;;;16.80;99.90;;;;;;4995644;28;20494;-68
2023/04/24 12:25:10;;;;;;;11.43;4.80;;;16.30;99.90;;;;;;4995572;28;20440;-67
2023/04/24 12:27:36;;;;;;;4.37;3.97;;;16.10;99.90;;;;;;4998969;28;20934;-68
2023/04/24 12:30:04;;;;;;;5.27;4.77;;;16.20;99.90;;;;;;4996670;28;20474;-67
2023/04/24 12:32:31;;;;;;;4.60;4.20;;;16.00;99.90;;;;;;4997342;28;20213;-67
2023/04/24 12:34:58;;;;;;;4.83;4.40;;;16.50;99.90;;;;;;4997649;28;20817;-68
2023/04/24 12:37:26;;;;;;;5.50;4.70;;;16.90;99.90;;;;;;4997751;28;20443;-68
2023/04/24 12:40:05;;;;;;;4.97;4.40;;;17.80;99.90;;;;;;4996178;28;20497;-67
2023/04/24 12:42:31;;;;;;;4.97;4.53;;;17.60;99.90;;;;;;4995486;28;20450;-68
2023/04/24 12:45:05;;;;;;;5.73;4.63;;;17.90;99.90;;;;;;4998560;28;20440;-68